• Join FlightAware (Why Join?)
  • Login
  • US Flag 
Trick or treat! (Boo!!) 
11:55AM EDT


 

Airport Tracker/Info


-or-


 

Live Flight TrackerFlight Track Log ✈ N703RM ✈ 23-Jul-2014 ✈ KHEF - KJZI

Flight Track Log - Related Links

Times and Time Zones

All times are in EDT time to prevent confusion due to time zone crossing. See the N703RM flight status page for this flight to view local times or setup timezone preferences in your user account.

Time Position Orientation Groundspeed Altitude Reporting Facility
EDT Latitude Longitude Course Direction KTS MPH feet Rate Location/Type
10:05AM 38.6833 -77.5000 237° Southwest 163 188 1,100  Level Potomac TRACON
10:06AM 38.6667 -77.5333 237° Southwest 184 212 2,100 1,140 Climbing Potomac TRACON
10:07AM 38.6667 -77.5833 270° West 178 205 3,300 1,200 Climbing Potomac TRACON
10:08AM 38.6667 -77.6500 270° West 192 221 4,500 1,140 Climbing Potomac TRACON
10:09AM 38.6500 -77.7333 256° West 197 227 5,700 1,080 Climbing Potomac TRACON
10:11AM 38.6486 -77.8036 269° West 197 227 7,000 1,140 Climbing Washington Center
10:12AM 38.6389 -77.8736 260° West 199 229 8,300 1,200 Climbing Washington Center
10:13AM 38.6047 -77.9328 234° Southwest 203 234 9,500 1,200 Climbing Washington Center
10:14AM 38.5706 -77.9903 233° Southwest 202 232 10,900 1,320 Climbing Washington Center
10:15AM 38.5375 -78.0444 232° Southwest 198 228 12,300 1,380 Climbing Washington Center
10:16AM 38.4983 -78.1094 232° Southwest 194 223 13,800 1,260 Climbing Washington Center
10:17AM 38.4642 -78.1672 233° Southwest 198 228 15,000 1,140 Climbing Washington Center
10:18AM 38.4278 -78.2258 232° Southwest 209 241 16,200 1,140 Climbing Washington Center
10:19AM 38.3700 -78.2528 200° South 218 251 17,400 1,080 Climbing Washington Center
10:20AM 38.3139 -78.2794 200° South 218 251 18,500 1,020 Climbing Washington Center
10:21AM 38.2581 -78.3056 200° South 215 247 19,600 1,080 Climbing Washington Center
10:22AM 38.1878 -78.3381 200° South 220 253 20,800 1,020 Climbing Washington Center
10:23AM 38.1278 -78.3656 200° South 225 259 21,800 840 Climbing Washington Center
10:24AM 38.0689 -78.3919 199° South 225 259 22,600 720 Climbing Washington Center
10:26AM 37.9417 -78.4500 200° South 229 264 24,200 720 Climbing Washington Center
10:27AM 37.8794 -78.4778 199° South 234 269 24,900 600 Climbing Washington Center
10:28AM 37.8178 -78.5067 200° South 236 272 25,500 480 Climbing Washington Center
10:29AM 37.7547 -78.5331 198° South 237 273 26,000 240 Climbing Washington Center
10:30AM 37.6906 -78.5631 200° South 242 278 26,000  Level Washington Center
10:31AM 37.6083 -78.6011 200° South 254 292 26,000  Level Washington Center
10:32AM 37.5386 -78.6314 199° South 263 303 26,000  Level Washington Center
10:33AM 37.4697 -78.6625 200° South 262 302 26,000  Level Washington Center
10:34AM 37.4019 -78.6925 199° South 261 300 26,000  Level Washington Center
10:35AM 37.3344 -78.7222 199° South 259 298 26,000  Level Washington Center
10:36AM 37.2667 -78.7528 200° South 259 298 26,000  Level Washington Center
10:37AM 37.1853 -78.7892 200° South 259 298 26,000  Level Washington Center
10:38AM 37.1169 -78.8197 200° South 259 298 26,000  Level Washington Center
10:39AM 37.0481 -78.8489 199° South 259 298 26,000  Level Washington Center
10:41AM 36.9808 -78.8797 200° South 259 298 26,000  Level Washington Center
10:42AM 36.9111 -78.9114 200° South 261 300 26,000  Level Washington Center
10:43AM 36.8436 -78.9414 200° South 259 298 26,000  Level Washington Center
10:44AM 36.7619 -78.9772 199° South 260 299 26,000  Level Washington Center
10:45AM 36.6936 -79.0069 199° South 260 299 26,000  Level Washington Center
10:46AM 36.6300 -79.0272 194° South 262 302 26,000  Level Washington Center
10:47AM 36.5444 -79.0478 191° South 262 302 26,000  Level Washington Center
10:48AM 36.4719 -79.0669 192° South 263 303 26,000  Level Washington Center
10:49AM 36.4003 -79.0844 191° South 263 303 26,000  Level Washington Center
10:50AM 36.3278 -79.1028 192° South 264 304 26,000  Level Washington Center
10:51AM 36.2553 -79.1214 192° South 265 305 26,000  Level Washington Center
10:52AM 36.1694 -79.1417 191° South 264 304 26,000  Level Washington Center
10:53AM 36.0964 -79.1594 191° South 265 305 26,000  Level Washington Center
10:54AM 36.0256 -79.1769 191° South 264 304 26,000  Level Washington Center
10:55AM 35.9539 -79.1944 191° South 264 304 26,000  Level Washington Center
10:56AM 35.8825 -79.2125 192° South 264 304 26,000  Level Washington Center
10:57AM 35.8108 -79.2297 191° South 263 303 26,000  Level Washington Center
10:58AM 35.7253 -79.2517 192° South 263 303 26,000  Level Washington Center
10:59AM 35.6542 -79.2678 190° South 263 303 26,000  Level Washington Center
11:00AM 35.5833 -79.2853 191° South 263 303 26,000  Level Washington Center
11:01AM 35.5111 -79.3025 191° South 263 303 26,000  Level Washington Center
11:02AM 35.4397 -79.3203 191° South 263 303 26,000  Level Washington Center
11:03AM 35.3536 -79.3408 191° South 263 303 26,000  Level Washington Center
11:04AM 35.2814 -79.3575 191° South 263 303 26,000  Level Washington Center
11:05AM 35.2094 -79.3742 191° South 263 303 26,000  Level Washington Center
11:06AM 35.1381 -79.3917 191° South 263 303 26,000  Level Washington Center
11:07AM 35.0658 -79.4103 192° South 263 303 26,000  Level Washington Center
11:09AM 34.9792 -79.4306 191° South 264 304 26,000  Level Washington Center
11:10AM 34.9086 -79.4475 191° South 262 302 26,000  Level Washington Center
11:11AM 34.8358 -79.4644 191° South 263 303 26,000  Level Washington Center
11:12AM 34.7633 -79.4822 191° South 263 303 26,000  Level Washington Center
11:13AM 34.6917 -79.4986 191° South 264 304 26,000  Level Washington Center
11:14AM 34.6050 -79.5192 191° South 264 304 26,000  Level Washington Center
11:15AM 34.5322 -79.5364 191° South 267 307 26,000  Level Washington Center
11:16AM 34.4611 -79.5550 192° South 263 303 26,000  Level Washington Center
11:17AM 34.3881 -79.5714 190° South 264 304 26,000  Level Washington Center
11:18AM 34.3153 -79.5878 191° South 264 304 26,000  Level Washington Center
11:19AM 34.2278 -79.6108 192° South 264 304 26,000  Level Washington Center
11:20AM 34.1722 -79.6422 205° Southwest 262 302 26,000 -300 Level Jacksonville Center
11:21AM 34.1000 -79.6725 199° South 262 302 25,500 -600 Descending Jacksonville Center
11:22AM 34.0258 -79.7103 203° Southwest 282 325 24,800 -780 Descending Jacksonville Center
11:23AM 33.9536 -79.7456 202° Southwest 287 330 24,000 -900 Descending Jacksonville Center
11:24AM 33.8775 -79.7858 204° Southwest 287 330 23,100 -900 Descending Jacksonville Center
11:25AM 33.8100 -79.8406 214° Southwest 287 330 22,200 -1,080 Descending Jacksonville Center
11:26AM 33.7489 -79.9103 223° Southwest 293 337 21,000 -1,200 Descending Jacksonville Center
11:27AM 33.6922 -79.9794 225° Southwest 300 345 19,800 -1,260 Descending Jacksonville Center
11:28AM 33.6333 -80.0514 225° Southwest 300 345 18,500 -1,320 Descending Jacksonville Center
11:29AM 33.5700 -80.1133 219° Southwest 300 345 17,200 -1,380 Descending Jacksonville Center
11:30AM 33.4886 -80.1133 180° South 284 327 15,800 -1,500 Descending Jacksonville Center
11:31AM 33.4047 -80.0886 166° South 278 320 14,300 -1,500 Descending Jacksonville Center
11:32AM 33.3228 -80.0686 168° South 291 335 12,800 -1,500 Descending Jacksonville Center
11:33AM 33.2431 -80.0514 170° South 298 343 11,300 -1,500 Descending Jacksonville Center
11:34AM 33.1708 -80.0017 150° Southeast 292 336 9,800 -1,500 Descending Jacksonville Center
11:35AM 33.1069 -79.9417 142° Southeast 291 335 8,300 -1,560 Descending Jacksonville Center
11:36AM 33.0453 -79.8867 143° Southeast 291 335 6,700 -1,560 Descending Jacksonville Center
11:37AM 32.9733 -79.8494 157° South 285 328 5,200 -1,500 Descending Jacksonville Center
11:38AM 32.9081 -79.8244 162° South 267 307 3,700 -1,200 Descending Jacksonville Center
11:39AM 32.8414 -79.8367 189° South 226 260 2,900 -840 Descending Jacksonville Center
11:41AM 32.7567 -79.9345 224° Southwest  Level FlightAware Approximate
11:48AM 32.7000 -80.0000 226° Southwest  Level FlightAware Approximate
11:49AM 32.7010 -80.0033 291° West  Level Estimated
11:50AM 32.7010 -80.0033 North  Level Estimated
11:51AM 32.7010 -80.0033 North  Level Estimated
11:52AM 32.7010 -80.0033 North  Level Estimated
11:53AM 32.7010 -80.0033 North  Level Estimated
11:54AM 32.7010 -80.0033 North  Level Estimated
11:55AM 32.7010 -80.0033 North  Level Estimated
11:56AM 32.7010 -80.0033 North  Level Estimated
11:57AM 32.7010 -80.0033 North  Level Estimated
11:58AM 32.7010 -80.0033 North  Level Estimated
11:59AM 32.7010 -80.0033 North  Level Estimated